createdAt,value
2023-04-03T00:01:13.526Z,1.58
2023-04-03T00:03:42.311Z,1.50
2023-04-03T00:06:12.141Z,1.58
2023-04-03T00:08:42.315Z,1.40
2023-04-03T00:11:10.946Z,1.23
2023-04-03T00:13:39.491Z,1.17
2023-04-03T00:16:08.197Z,1.20
2023-04-03T00:18:36.428Z,1.35
2023-04-03T00:21:04.741Z,1.43
2023-04-03T00:23:33.015Z,1.30
2023-04-03T00:26:02.187Z,1.23
2023-04-03T00:28:29.998Z,1.35
2023-04-03T00:30:57.858Z,1.88
2023-04-03T00:33:25.799Z,1.20
2023-04-03T00:35:57.029Z,0.85
2023-04-03T00:38:24.896Z,1.20
2023-04-03T00:40:52.717Z,1.65
2023-04-03T00:43:27.367Z,1.17
2023-04-03T00:45:56.361Z,1.00
2023-04-03T00:48:29.752Z,1.30
2023-04-03T00:50:58.963Z,1.00
2023-04-03T00:53:31.057Z,1.67
2023-04-03T00:56:00.594Z,1.42
2023-04-03T00:58:36.169Z,1.43
2023-04-03T01:01:09.989Z,1.33
2023-04-03T01:03:38.054Z,1.40
2023-04-03T01:06:06.902Z,1.58
2023-04-03T01:08:35.254Z,1.20
2023-04-03T01:11:03.037Z,1.03
2023-04-03T01:13:34.005Z,1.45
2023-04-03T01:16:03.743Z,1.25
2023-04-03T01:18:32.933Z,1.73
2023-04-03T01:21:25.832Z,1.27
2023-04-03T01:24:07.724Z,1.20
2023-04-03T01:26:36.714Z,1.45
2023-04-03T01:29:06.378Z,1.20
2023-04-03T01:31:51.084Z,1.50
2023-04-03T01:34:18.969Z,1.05
2023-04-03T01:36:46.949Z,1.50
2023-04-03T01:39:15.314Z,1.30
2023-04-03T01:41:43.119Z,1.08
2023-04-03T01:44:11.095Z,1.48
2023-04-03T01:46:39.314Z,1.40
2023-04-03T01:49:08.484Z,1.07
2023-04-03T01:51:36.449Z,0.85
2023-04-03T01:54:04.477Z,1.00
2023-04-03T01:56:32.267Z,1.55
2023-04-03T01:59:00.179Z,1.20
2023-04-03T02:01:28.058Z,1.60
2023-04-03T02:03:55.966Z,1.60
2023-04-03T02:06:25.177Z,1.10
2023-04-03T02:08:52.970Z,1.27
2023-04-03T02:11:21.219Z,1.50
2023-04-03T02:13:49.224Z,1.10
2023-04-03T02:16:17.371Z,1.33
2023-04-03T02:18:45.318Z,1.10
2023-04-03T02:21:13.128Z,1.17
2023-04-03T02:23:42.316Z,1.27
2023-04-03T02:26:11.898Z,1.53
2023-04-03T02:28:40.125Z,1.38
2023-04-03T02:31:08.461Z,1.55
2023-04-03T02:33:37.543Z,1.27
2023-04-03T02:36:07.344Z,1.55
2023-04-03T02:38:36.046Z,1.17
2023-04-03T02:41:06.474Z,1.60
2023-04-03T02:43:34.897Z,1.20
2023-04-03T02:46:02.906Z,1.20
2023-04-03T02:48:30.856Z,1.35
2023-04-03T02:50:58.655Z,1.00
2023-04-03T02:53:26.504Z,1.13
2023-04-03T02:55:54.332Z,1.13
2023-04-03T02:58:23.463Z,1.38
2023-04-03T03:00:51.273Z,1.15
2023-04-03T03:03:19.120Z,1.10
2023-04-03T03:05:46.913Z,0.90
2023-04-03T03:08:14.804Z,0.70
2023-04-03T03:10:42.565Z,1.27
2023-04-03T03:13:10.339Z,0.95
2023-04-03T03:15:39.506Z,0.90
2023-04-03T03:18:07.353Z,1.30
2023-04-03T03:20:35.750Z,1.60
2023-04-03T03:23:03.705Z,1.00
2023-04-03T03:25:31.570Z,1.38
2023-04-03T03:27:59.348Z,1.67
2023-04-03T03:30:27.166Z,0.70
2023-04-03T03:32:56.372Z,1.13
2023-04-03T03:35:24.269Z,0.95
2023-04-03T03:37:52.121Z,1.23
2023-04-03T03:40:20.085Z,0.93
2023-04-03T03:42:47.842Z,1.02
2023-04-03T03:45:15.839Z,1.27
2023-04-03T03:47:43.620Z,1.08
2023-04-03T03:50:13.102Z,1.00
2023-04-03T03:52:41.096Z,0.90
2023-04-03T03:55:09.612Z,1.05
2023-04-03T03:57:37.439Z,0.90
2023-04-03T04:00:06.199Z,1.13
2023-04-03T04:02:34.116Z,0.95
2023-04-03T04:05:02.024Z,0.90
2023-04-03T04:07:31.368Z,0.80
2023-04-03T04:09:59.171Z,0.98
2023-04-03T04:12:26.975Z,1.00
2023-04-03T04:14:54.793Z,1.00
2023-04-03T04:17:22.607Z,1.30
2023-04-03T04:19:50.523Z,0.75
2023-04-03T04:22:18.370Z,1.40
2023-04-03T04:24:47.526Z,1.15
2023-04-03T04:27:16.622Z,0.90
2023-04-03T04:29:44.463Z,0.83
2023-04-03T04:32:12.514Z,0.75
2023-04-03T04:34:40.427Z,1.38
2023-04-03T04:37:08.343Z,0.90
2023-04-03T04:39:36.884Z,1.38
2023-04-03T04:42:08.079Z,1.10
2023-04-03T04:44:35.921Z,1.10
2023-04-03T04:47:03.736Z,1.42
2023-04-03T04:49:31.551Z,1.13
2023-04-03T04:51:59.470Z,1.05
2023-04-03T04:54:27.250Z,1.10
2023-04-03T04:56:55.125Z,1.10
2023-04-03T04:59:24.329Z,1.25
2023-04-03T05:01:52.164Z,1.50
2023-04-03T05:04:20.290Z,1.13
2023-04-03T05:06:48.192Z,1.30
2023-04-03T05:09:16.399Z,1.23
2023-04-03T05:11:44.229Z,1.30
2023-04-03T05:14:12.159Z,1.27
2023-04-03T05:16:41.330Z,1.63
2023-04-03T05:19:09.231Z,1.53
2023-04-03T05:21:37.069Z,1.33
2023-04-03T05:24:05.271Z,1.33
2023-04-03T05:26:33.625Z,1.70
2023-04-03T05:29:01.454Z,1.58
2023-04-03T05:31:30.594Z,1.90
2023-04-03T05:34:00.298Z,1.67
2023-04-03T05:36:28.121Z,1.60
2023-04-03T05:38:57.289Z,1.70
2023-04-03T05:41:25.846Z,1.85
2023-04-03T05:43:53.748Z,2.00
2023-04-03T05:46:23.109Z,1.80
2023-04-03T05:48:51.440Z,2.00
2023-04-03T05:51:23.821Z,1.75
2023-04-03T05:53:57.117Z,2.08
2023-04-03T05:56:24.943Z,1.90
2023-04-03T05:58:52.790Z,1.88
2023-04-03T06:01:20.603Z,1.80
2023-04-03T06:03:48.567Z,2.00
2023-04-03T06:06:16.731Z,2.00
2023-04-03T06:08:47.157Z,2.40
2023-04-03T06:11:15.003Z,1.63
2023-04-03T06:13:42.880Z,2.13
2023-04-03T06:16:11.505Z,1.92
2023-04-03T06:18:39.315Z,1.90
2023-04-03T06:21:08.763Z,2.03
2023-04-03T06:23:36.712Z,2.40
2023-04-03T06:26:06.557Z,2.30
2023-04-03T06:28:34.342Z,2.25
2023-04-03T06:31:02.335Z,2.92
2023-04-03T06:33:30.151Z,2.53
2023-04-03T06:35:59.345Z,2.80
2023-04-03T06:38:27.436Z,3.08
2023-04-03T06:40:55.196Z,2.90
2023-04-03T06:43:25.446Z,3.13
2023-04-03T06:45:53.303Z,2.90
2023-04-03T06:48:21.903Z,3.10
2023-04-03T06:50:49.680Z,3.33
2023-04-03T06:53:17.535Z,3.20
2023-04-03T06:55:45.382Z,2.90
2023-04-03T06:58:13.172Z,3.05
2023-04-03T07:00:42.308Z,3.17
2023-04-03T07:03:10.349Z,3.45
2023-04-03T07:05:38.381Z,3.28
2023-04-03T07:08:06.592Z,3.10
2023-04-03T07:10:34.341Z,3.25
2023-04-03T07:13:02.744Z,4.53
2023-04-03T07:15:30.870Z,2.80
2023-04-03T07:18:00.021Z,2.85
2023-04-03T07:20:28.040Z,3.10
2023-04-03T07:22:59.308Z,3.50
2023-04-03T07:25:27.495Z,2.90
2023-04-03T07:27:55.978Z,2.88
2023-04-03T07:30:24.087Z,3.10
2023-04-03T07:32:52.439Z,3.05
2023-04-03T07:35:21.898Z,3.20
2023-04-03T07:37:49.923Z,3.00
2023-04-03T07:40:19.043Z,2.60
2023-04-03T07:42:47.704Z,2.88
2023-04-03T07:45:15.953Z,2.67
2023-04-03T07:47:43.919Z,3.17
2023-04-03T07:50:12.357Z,2.80
2023-04-03T07:52:41.865Z,2.80
2023-04-03T07:55:10.500Z,2.70
2023-04-03T07:57:38.479Z,2.45
2023-04-03T08:00:08.111Z,2.25
2023-04-03T08:02:35.979Z,2.30
2023-04-03T08:05:03.911Z,2.60
2023-04-03T08:07:31.730Z,2.50
2023-04-03T08:10:01.064Z,2.60
2023-04-03T08:12:29.568Z,2.55
2023-04-03T08:14:57.639Z,2.60
2023-04-03T08:17:26.007Z,2.17
2023-04-03T08:19:53.824Z,2.50
2023-04-03T08:22:21.912Z,2.20
2023-04-03T08:24:58.498Z,2.60
2023-04-03T08:27:28.592Z,2.30
2023-04-03T08:29:56.668Z,2.30
2023-04-03T08:32:25.206Z,2.10
2023-04-03T08:34:53.100Z,2.10
2023-04-03T08:37:21.386Z,2.30
2023-04-03T08:39:49.733Z,2.30
2023-04-03T08:42:26.461Z,2.50
2023-04-03T08:45:04.224Z,2.40
2023-04-03T08:47:40.132Z,2.50
2023-04-03T08:50:13.491Z,2.70
2023-04-03T08:52:47.461Z,2.47
2023-04-03T08:55:24.263Z,2.85
2023-04-03T08:57:56.793Z,3.35
2023-04-03T09:00:29.257Z,2.83
2023-04-03T09:02:58.709Z,3.55
2023-04-03T09:05:36.974Z,2.80
2023-04-03T09:08:09.752Z,2.67
2023-04-03T09:10:40.745Z,3.08
2023-04-03T09:13:15.565Z,3.67
2023-04-03T09:15:46.490Z,3.05
2023-04-03T09:18:19.479Z,2.97
2023-04-03T09:20:55.896Z,3.47
2023-04-03T09:23:32.208Z,3.03
2023-04-03T09:26:06.106Z,3.33
2023-04-03T09:28:46.887Z,3.85
2023-04-03T09:31:23.788Z,3.70
2023-04-03T09:33:54.719Z,3.17
2023-04-03T09:36:43.575Z,3.35
2023-04-03T09:39:16.590Z,3.05
2023-04-03T09:41:56.787Z,3.30
2023-04-03T09:44:26.603Z,3.00
2023-04-03T09:46:55.856Z,3.15
2023-04-03T09:49:23.941Z,3.00
2023-04-03T09:51:51.752Z,3.88
2023-04-03T09:54:40.957Z,3.05
2023-04-03T09:57:12.940Z,3.20
2023-04-03T09:59:49.903Z,2.53
2023-04-03T10:02:34.051Z,2.70
2023-04-03T10:07:36.761Z,3.17
2023-04-03T10:10:26.684Z,3.70
2023-04-03T10:13:07.424Z,2.80
2023-04-03T10:15:42.282Z,3.05
2023-04-03T10:18:25.129Z,3.10
2023-04-03T10:20:54.427Z,2.90
2023-04-03T10:23:27.104Z,2.23
2023-04-03T10:26:08.681Z,3.10
2023-04-03T10:28:47.084Z,3.15
2023-04-03T10:31:24.404Z,2.67
2023-04-03T10:34:03.316Z,3.45
2023-04-03T10:36:39.604Z,3.20
2023-04-03T10:39:20.517Z,3.35
2023-04-03T10:42:15.674Z,3.33
2023-04-03T10:44:58.508Z,3.63
2023-04-03T10:47:35.500Z,3.55
2023-04-03T10:50:24.717Z,2.90
2023-04-03T10:52:59.455Z,2.97
2023-04-03T10:55:37.886Z,3.53
2023-04-03T10:58:08.084Z,3.50
2023-04-03T11:00:44.723Z,3.35
2023-04-03T11:03:17.498Z,2.80
2023-04-03T11:05:49.353Z,3.25
2023-04-03T11:08:28.647Z,2.50
2023-04-03T11:11:01.360Z,2.58
2023-04-03T11:13:33.506Z,2.85
2023-04-03T11:16:01.459Z,2.77
2023-04-03T11:18:38.140Z,3.03
2023-04-03T11:21:12.652Z,2.22
2023-04-03T11:23:49.501Z,2.53
2023-04-03T11:26:21.845Z,2.00
2023-04-03T11:28:54.902Z,2.27
2023-04-03T11:31:35.656Z,2.80
2023-04-03T11:34:18.241Z,2.00
2023-04-03T11:36:51.665Z,2.20
2023-04-03T11:39:25.096Z,2.10
2023-04-03T11:42:00.290Z,2.20
2023-04-03T11:44:38.617Z,2.10
2023-04-03T11:47:09.187Z,2.15
2023-04-03T11:49:59.175Z,2.50
2023-04-03T11:56:01.969Z,2.33
2023-04-03T11:58:32.285Z,2.10
2023-04-03T12:01:07.048Z,2.42
2023-04-03T12:04:10.098Z,2.08
2023-04-03T12:07:03.921Z,2.10
2023-04-03T12:09:56.437Z,2.30
2023-04-03T12:12:32.763Z,2.00
2023-04-03T12:15:25.641Z,2.25
2023-04-03T12:17:53.683Z,2.30
2023-04-03T12:20:56.007Z,2.13
2023-04-03T12:23:29.687Z,2.10
2023-04-03T12:26:05.696Z,2.30
2023-04-03T12:28:41.570Z,2.30
2023-04-03T12:31:12.568Z,2.10
2023-04-03T12:33:59.003Z,2.03
2023-04-03T12:36:36.401Z,2.30
2023-04-03T12:39:22.917Z,2.50
2023-04-03T12:42:03.042Z,2.35
2023-04-03T12:44:40.029Z,2.22
2023-04-03T12:47:24.059Z,2.42
2023-04-03T12:49:52.905Z,2.00
2023-04-03T12:52:30.816Z,2.13
2023-04-03T12:54:59.210Z,2.50
2023-04-03T12:57:28.610Z,2.60
2023-04-03T12:59:58.247Z,1.90
2023-04-03T13:02:28.214Z,2.60
2023-04-03T13:04:58.823Z,2.30
2023-04-03T13:07:33.068Z,2.08
2023-04-03T13:10:03.064Z,2.42
2023-04-03T13:12:32.575Z,2.10
2023-04-03T13:15:05.302Z,2.55
2023-04-03T13:17:33.674Z,2.37
2023-04-03T13:20:13.498Z,2.25
2023-04-03T13:22:50.084Z,2.50
2023-04-03T13:25:19.308Z,2.53
2023-04-03T13:27:47.377Z,1.90
2023-04-03T13:30:26.614Z,2.43
2023-04-03T13:32:55.278Z,2.08
2023-04-03T13:35:35.675Z,2.28
2023-04-03T13:38:06.736Z,2.20
2023-04-03T13:40:46.944Z,2.15
2023-04-03T13:43:22.140Z,2.10
2023-04-03T13:46:06.208Z,2.30
2023-04-03T13:48:40.641Z,2.22
2023-04-03T13:51:20.736Z,2.33
2023-04-03T13:53:51.657Z,2.15
2023-04-03T13:56:23.890Z,2.30
2023-04-03T13:59:07.964Z,2.13
2023-04-03T14:01:47.061Z,1.75
2023-04-03T14:04:19.358Z,2.30
2023-04-03T14:06:47.744Z,1.98
2023-04-03T14:09:16.591Z,1.90
2023-04-03T14:11:44.758Z,1.60
2023-04-03T14:14:16.855Z,1.80
2023-04-03T14:16:50.113Z,1.60
2023-04-03T14:19:23.571Z,1.60
2023-04-03T14:21:53.555Z,1.50
2023-04-03T14:24:22.236Z,1.40
2023-04-03T14:26:51.191Z,1.52
2023-04-03T14:29:18.977Z,1.70
2023-04-03T14:31:55.578Z,1.77
2023-04-03T14:34:28.381Z,1.50
2023-04-03T14:36:56.362Z,1.38
2023-04-03T14:39:24.161Z,1.50
2023-04-03T14:41:51.974Z,1.40
2023-04-03T14:44:19.773Z,1.40
2023-04-03T14:46:56.655Z,1.37
2023-04-03T14:49:30.305Z,1.50
2023-04-03T14:51:59.104Z,1.30
2023-04-03T14:54:28.911Z,1.50
2023-04-03T14:56:59.127Z,1.35
2023-04-03T14:59:27.497Z,1.40
2023-04-03T15:01:56.725Z,1.20
2023-04-03T15:04:24.758Z,1.10
2023-04-03T15:06:54.744Z,1.15
2023-04-03T15:09:24.986Z,1.20
2023-04-03T15:11:53.864Z,1.20
2023-04-03T15:14:35.482Z,1.30
2023-04-03T15:17:06.877Z,1.50
2023-04-03T15:19:39.380Z,1.08
2023-04-03T15:22:07.611Z,1.13
2023-04-03T15:24:35.407Z,1.40
2023-04-03T15:27:03.722Z,1.10
2023-04-03T15:29:31.694Z,1.40
2023-04-03T15:31:59.565Z,1.00
2023-04-03T15:34:29.772Z,1.58
2023-04-03T15:36:57.654Z,1.27
2023-04-03T15:39:27.282Z,1.05
2023-04-03T15:41:55.322Z,0.98
2023-04-03T15:44:23.506Z,1.50
2023-04-03T15:46:52.336Z,1.20
2023-04-03T15:49:21.208Z,1.00
2023-04-03T15:51:50.352Z,1.30
2023-04-03T15:54:18.274Z,1.20
2023-04-03T15:56:46.139Z,0.90
2023-04-03T15:59:14.000Z,1.00
2023-04-03T16:01:42.449Z,1.00
2023-04-03T16:04:11.501Z,0.93
2023-04-03T16:06:40.148Z,0.98
2023-04-03T16:09:09.897Z,1.10
2023-04-03T16:11:40.220Z,0.90
2023-04-03T16:14:08.761Z,1.17
2023-04-03T16:16:37.262Z,0.90
2023-04-03T16:19:05.626Z,0.80
2023-04-03T16:21:34.323Z,1.38
2023-04-03T16:24:03.216Z,0.90
2023-04-03T16:26:32.645Z,0.90
2023-04-03T16:29:00.662Z,1.20
2023-04-03T16:31:29.571Z,1.00
2023-04-03T16:33:58.473Z,0.80
2023-04-03T16:36:27.373Z,1.05
2023-04-03T16:38:55.284Z,1.00
2023-04-03T16:41:23.165Z,0.88
2023-04-03T16:43:52.566Z,1.00
2023-04-03T16:46:20.503Z,1.10
2023-04-03T16:48:48.517Z,1.25
2023-04-03T16:51:16.317Z,1.20
2023-04-03T16:53:44.095Z,0.98
2023-04-03T16:56:12.046Z,1.10
2023-04-03T16:58:40.051Z,1.13
2023-04-03T17:01:14.638Z,1.33
2023-04-03T17:03:42.641Z,1.20
2023-04-03T17:06:16.795Z,1.10
2023-04-03T17:08:45.000Z,1.00
2023-04-03T17:11:12.905Z,1.48
2023-04-03T17:13:40.712Z,1.20
2023-04-03T17:16:15.093Z,1.30
2023-04-03T17:18:43.399Z,1.00
2023-04-03T17:21:11.277Z,1.10
2023-04-03T17:23:41.140Z,1.02
2023-04-03T17:26:08.966Z,1.10
2023-04-03T17:28:37.014Z,1.35
2023-04-03T17:31:05.210Z,1.10
2023-04-03T17:33:34.791Z,1.00
2023-04-03T17:36:04.536Z,1.10
2023-04-03T17:38:33.401Z,1.10
2023-04-03T17:41:02.955Z,1.10
2023-04-03T17:43:30.717Z,1.10
2023-04-03T17:46:03.679Z,0.95
2023-04-03T17:48:32.010Z,0.95
2023-04-03T17:51:04.982Z,0.85
2023-04-03T17:53:32.963Z,0.70
2023-04-03T17:56:00.872Z,0.90
2023-04-03T17:58:28.965Z,1.27
2023-04-03T18:00:57.085Z,0.80
2023-04-03T18:03:24.903Z,0.90
2023-04-03T18:05:55.315Z,0.80
2023-04-03T18:08:24.762Z,0.90
2023-04-03T18:10:53.162Z,0.90
2023-04-03T18:13:20.963Z,0.70
2023-04-03T18:15:51.462Z,0.70
2023-04-03T18:18:20.252Z,1.23
2023-04-03T18:20:48.060Z,0.90
2023-04-03T18:23:15.917Z,0.90
2023-04-03T18:25:45.598Z,0.80
2023-04-03T18:28:13.600Z,0.80
2023-04-03T18:30:43.494Z,0.80
2023-04-03T18:33:11.461Z,0.90
2023-04-03T18:35:39.486Z,0.77
2023-04-03T18:38:07.677Z,0.77
2023-04-03T18:40:35.717Z,0.70
2023-04-03T18:43:05.195Z,0.70
2023-04-03T18:45:33.111Z,0.85
2023-04-03T18:48:01.117Z,0.90
2023-04-03T18:50:30.104Z,1.20
2023-04-03T18:52:57.885Z,1.10
2023-04-03T18:55:25.690Z,1.05
2023-04-03T18:57:53.504Z,1.20
2023-04-03T19:00:22.877Z,0.80
2023-04-03T19:02:50.984Z,0.88
2023-04-03T19:05:19.808Z,1.00
2023-04-03T19:07:49.424Z,0.90
2023-04-03T19:10:18.275Z,0.80
2023-04-03T19:12:46.979Z,0.80
2023-04-03T19:15:15.748Z,0.70
2023-04-03T19:17:45.586Z,0.60
2023-04-03T19:20:14.914Z,0.50
2023-04-03T19:22:43.329Z,1.25
2023-04-03T19:25:12.890Z,0.77
2023-04-03T19:27:41.882Z,0.60
2023-04-03T19:30:12.038Z,0.90
2023-04-03T19:32:40.115Z,0.65
2023-04-03T19:35:10.406Z,0.70
2023-04-03T19:37:38.381Z,0.60
2023-04-03T19:40:07.521Z,0.90
2023-04-03T19:42:36.812Z,0.90
2023-04-03T19:45:05.066Z,1.10
2023-04-03T19:47:32.876Z,1.00
2023-04-03T19:50:00.819Z,1.10
2023-04-03T19:52:30.011Z,1.17
2023-04-03T19:54:57.944Z,1.00
2023-04-03T19:57:26.187Z,0.95
2023-04-03T19:59:53.980Z,0.80
2023-04-03T20:02:21.784Z,1.00
2023-04-03T20:04:49.677Z,1.10
2023-04-03T20:07:17.758Z,1.08
2023-04-03T20:09:46.892Z,0.98
2023-04-03T20:12:14.656Z,0.93
2023-04-03T20:14:43.665Z,1.00
2023-04-03T20:17:11.507Z,0.90
2023-04-03T20:19:39.290Z,1.00
2023-04-03T20:22:07.263Z,0.70
2023-04-03T20:24:35.089Z,0.90
2023-04-03T20:27:05.555Z,0.80
2023-04-03T20:29:33.379Z,0.90
2023-04-03T20:32:01.282Z,0.82
2023-04-03T20:34:29.187Z,1.00
2023-04-03T20:36:56.968Z,1.02
2023-04-03T20:39:25.023Z,0.90
2023-04-03T20:41:52.947Z,1.00
2023-04-03T20:44:22.228Z,0.93
2023-04-03T20:46:53.517Z,0.90
2023-04-03T20:49:23.100Z,1.15
2023-04-03T20:51:52.098Z,1.23
2023-04-03T20:54:20.413Z,0.90
2023-04-03T20:56:49.658Z,1.10
2023-04-03T20:59:18.471Z,1.10
2023-04-03T21:01:48.947Z,1.08
2023-04-03T21:04:23.149Z,1.08
2023-04-03T21:07:28.518Z,1.00
2023-04-03T21:10:33.438Z,0.90
2023-04-03T21:13:38.589Z,0.90
2023-04-03T21:16:06.151Z,0.68
2023-04-03T21:18:51.042Z,0.90
2023-04-03T21:21:20.851Z,0.80
2023-04-03T21:23:49.609Z,0.60
2023-04-03T21:26:17.889Z,0.63
2023-04-03T21:28:46.365Z,0.60
2023-04-03T21:31:15.263Z,0.50
2023-04-03T21:33:45.175Z,0.60
2023-04-03T21:36:13.306Z,0.53
2023-04-03T21:38:41.071Z,0.70
2023-04-03T21:41:09.006Z,0.40
2023-04-03T21:43:37.325Z,0.65
2023-04-03T21:46:05.618Z,0.40
2023-04-03T21:48:33.553Z,0.40
2023-04-03T21:51:06.747Z,0.40
2023-04-03T21:53:35.513Z,0.60
2023-04-03T21:56:03.353Z,0.68
2023-04-03T21:58:32.335Z,0.50
2023-04-03T22:01:10.240Z,0.47
2023-04-03T22:03:38.120Z,0.52
2023-04-03T22:06:07.828Z,0.40
2023-04-03T22:08:35.703Z,0.52
2023-04-03T22:11:04.469Z,0.70
2023-04-03T22:13:32.395Z,1.00
2023-04-03T22:16:01.763Z,0.60
2023-04-03T22:18:29.720Z,0.70
2023-04-03T22:20:57.677Z,0.60
2023-04-03T22:23:27.399Z,0.95
2023-04-03T22:25:59.657Z,0.77
2023-04-03T22:28:28.192Z,0.57
2023-04-03T22:30:56.262Z,0.70
2023-04-03T22:33:24.449Z,1.00
2023-04-03T22:35:52.877Z,0.77
2023-04-03T22:38:20.693Z,0.87
2023-04-03T22:40:58.190Z,0.60
2023-04-03T22:43:26.446Z,0.70
2023-04-03T22:45:54.801Z,0.70
2023-04-03T22:48:23.602Z,0.57
2023-04-03T22:50:51.661Z,0.60
2023-04-03T22:53:19.924Z,0.60
2023-04-03T22:55:56.964Z,0.65
2023-04-03T22:58:26.829Z,0.70
2023-04-03T23:00:55.504Z,0.50
2023-04-03T23:03:24.269Z,0.50
2023-04-03T23:05:54.118Z,0.52
2023-04-03T23:08:21.887Z,0.57
2023-04-03T23:10:49.637Z,0.85
2023-04-03T23:13:18.906Z,0.50
2023-04-03T23:15:53.790Z,0.80
2023-04-03T23:18:21.682Z,0.60
2023-04-03T23:20:51.680Z,0.60
2023-04-03T23:23:19.842Z,0.60
2023-04-03T23:25:52.669Z,0.55
2023-04-03T23:28:22.077Z,0.50
2023-04-03T23:30:51.078Z,0.70
2023-04-03T23:33:18.887Z,0.55
2023-04-03T23:35:48.964Z,0.73
2023-04-03T23:38:17.652Z,0.40
2023-04-03T23:40:47.132Z,0.60
2023-04-03T23:43:14.968Z,0.52
2023-04-03T23:45:45.732Z,0.70
2023-04-03T23:48:14.248Z,0.50
2023-04-03T23:50:42.567Z,0.57
2023-04-03T23:53:10.634Z,0.50
2023-04-03T23:55:38.776Z,0.70
2023-04-03T23:58:06.704Z,0.50
